createdAt,value
2018-03-04T00:00:00.244Z,74.61
2018-03-04T00:01:02.774Z,74.65
2018-03-04T00:02:05.330Z,74.82
2018-03-04T00:03:07.858Z,74.94
2018-03-04T00:04:10.370Z,74.95
2018-03-04T00:05:12.909Z,74.78
2018-03-04T00:06:15.452Z,74.92
2018-03-04T00:07:17.965Z,74.58
2018-03-04T00:08:20.486Z,74.79
2018-03-04T00:09:23.007Z,74.77
2018-03-04T00:10:25.534Z,74.62
2018-03-04T00:11:28.070Z,74.54
2018-03-04T00:12:30.586Z,74.84
2018-03-04T00:13:33.110Z,74.77
2018-03-04T00:14:35.630Z,74.73
2018-03-04T00:15:38.150Z,74.72
2018-03-04T00:16:40.690Z,74.61
2018-03-04T00:17:43.231Z,74.71
2018-03-04T00:18:45.772Z,74.89
2018-03-04T00:19:48.291Z,75.12
2018-03-04T00:20:50.822Z,74.95
2018-03-04T00:21:53.354Z,75.18
2018-03-04T00:22:55.865Z,75.16
2018-03-04T00:23:58.406Z,75.23
2018-03-04T00:25:00.937Z,75.26
2018-03-04T00:26:03.484Z,75.21
2018-03-04T00:27:06.027Z,75.62
2018-03-04T00:28:08.600Z,75.92
2018-03-04T00:29:11.155Z,75.81
2018-03-04T00:30:13.721Z,75.78
2018-03-04T00:31:16.234Z,76.05
2018-03-04T00:32:18.773Z,76.15
2018-03-04T00:33:21.310Z,76.24
2018-03-04T00:34:23.844Z,76.08
2018-03-04T00:35:26.414Z,75.78
2018-03-04T00:36:28.934Z,75.85
2018-03-04T00:37:31.450Z,76.03
2018-03-04T00:38:33.994Z,75.67
2018-03-04T00:39:36.526Z,75.73
2018-03-04T00:40:39.061Z,75.79
2018-03-04T00:41:41.586Z,76.06
2018-03-04T00:42:44.130Z,76.08
2018-03-04T00:43:46.676Z,76.33
2018-03-04T00:44:49.204Z,76.25
2018-03-04T00:45:51.740Z,76.44
2018-03-04T00:46:54.272Z,76.62
2018-03-04T00:47:56.801Z,76.47
2018-03-04T00:48:59.322Z,76.44
2018-03-04T00:50:01.838Z,76.53
2018-03-04T00:51:04.381Z,76.63
2018-03-04T00:52:06.910Z,76.64
2018-03-04T00:53:09.449Z,76.75
2018-03-04T00:54:11.994Z,76.78
2018-03-04T00:55:14.568Z,76.85
2018-03-04T00:56:17.154Z,77.04
2018-03-04T00:57:19.674Z,77.09
2018-03-04T00:58:22.185Z,77.12
2018-03-04T00:59:24.725Z,77.23
2018-03-04T01:00:27.276Z,77.67
2018-03-04T01:01:29.802Z,77.25
2018-03-04T01:02:32.318Z,77.61
2018-03-04T01:03:34.851Z,77.72
2018-03-04T01:04:37.405Z,77.93
2018-03-04T01:05:39.917Z,77.82
2018-03-04T01:06:42.452Z,77.81
2018-03-04T01:07:44.971Z,77.93
2018-03-04T01:08:47.507Z,77.80
2018-03-04T01:09:50.036Z,78.05
2018-03-04T01:10:52.558Z,78.20
2018-03-04T01:11:55.097Z,78.12
2018-03-04T01:12:57.633Z,78.30
2018-03-04T01:14:00.169Z,77.98
2018-03-04T01:15:02.703Z,78.13
2018-03-04T01:16:05.240Z,78.07
2018-03-04T01:17:07.772Z,78.15
2018-03-04T01:18:10.291Z,78.05
2018-03-04T01:19:12.805Z,78.08
2018-03-04T01:20:15.340Z,78.13
2018-03-04T01:21:17.868Z,78.16
2018-03-04T01:22:20.382Z,78.42
2018-03-04T01:23:22.923Z,78.41
2018-03-04T01:24:25.532Z,78.70
2018-03-04T01:25:28.034Z,78.60
2018-03-04T01:26:30.567Z,78.38
2018-03-04T01:27:33.088Z,78.34
2018-03-04T01:28:35.605Z,78.38
2018-03-04T01:29:38.132Z,78.42
2018-03-04T01:30:40.692Z,78.96
2018-03-04T01:31:43.214Z,79.02
2018-03-04T01:32:45.739Z,79.02
2018-03-04T01:33:48.283Z,78.93
2018-03-04T01:34:50.835Z,78.83
2018-03-04T01:35:53.366Z,78.55
2018-03-04T01:36:55.886Z,78.46
2018-03-04T01:37:58.415Z,78.71
2018-03-04T01:39:00.926Z,78.75
2018-03-04T01:40:03.445Z,78.92
2018-03-04T01:41:05.989Z,78.92
2018-03-04T01:42:08.521Z,79.03
2018-03-04T01:43:11.056Z,78.96
2018-03-04T01:44:13.587Z,78.62
2018-03-04T01:45:16.128Z,78.75
2018-03-04T01:46:18.684Z,79.13
2018-03-04T01:47:21.216Z,79.11
2018-03-04T01:48:23.750Z,79.49
2018-03-04T01:49:26.280Z,79.49
2018-03-04T01:50:28.798Z,79.50
2018-03-04T01:51:43.083Z,79.73
2018-03-04T01:52:45.631Z,79.89
2018-03-04T01:53:48.186Z,79.61
2018-03-04T01:54:50.707Z,79.74
2018-03-04T01:55:53.235Z,79.83
2018-03-04T01:56:55.773Z,80.07
2018-03-04T01:57:58.308Z,79.96
2018-03-04T01:59:00.899Z,80.05
2018-03-04T02:00:03.436Z,79.71
2018-03-04T02:01:05.967Z,79.86
2018-03-04T02:02:08.507Z,79.85
2018-03-04T02:03:11.023Z,79.80
2018-03-04T02:04:13.568Z,79.75
2018-03-04T02:05:16.082Z,79.71
2018-03-04T02:06:18.598Z,79.74
2018-03-04T02:07:21.224Z,79.77
2018-03-04T02:08:23.766Z,79.79
2018-03-04T02:09:26.295Z,79.51
2018-03-04T02:10:28.818Z,79.53
2018-03-04T02:11:31.347Z,79.47
2018-03-04T02:12:33.890Z,79.25
2018-03-04T02:13:36.405Z,79.19
2018-03-04T02:14:38.961Z,79.25
2018-03-04T02:15:41.483Z,79.36
2018-03-04T02:16:44.016Z,79.50
2018-03-04T02:17:46.563Z,79.20
2018-03-04T02:18:49.109Z,78.93
2018-03-04T02:19:51.670Z,79.08
2018-03-04T02:20:54.208Z,79.15
2018-03-04T02:21:56.740Z,79.28
2018-03-04T02:22:59.278Z,79.30
2018-03-04T02:24:01.817Z,79.45
2018-03-04T02:25:04.369Z,79.40
2018-03-04T02:26:06.949Z,79.42
2018-03-04T02:27:09.466Z,79.67
2018-03-04T02:28:12.019Z,79.61
2018-03-04T02:29:14.552Z,79.55
2018-03-04T02:30:17.097Z,79.89
2018-03-04T02:31:19.624Z,79.62
2018-03-04T02:32:22.145Z,79.64
2018-03-04T02:33:24.703Z,79.43
2018-03-04T02:34:27.223Z,79.14
2018-03-04T02:35:29.761Z,79.63
2018-03-04T02:36:32.292Z,79.52
2018-03-04T02:37:34.825Z,79.44
2018-03-04T02:38:37.385Z,79.76
2018-03-04T02:39:39.916Z,79.52
2018-03-04T02:40:42.448Z,79.45
2018-03-04T02:41:44.985Z,79.68
2018-03-04T02:42:47.510Z,79.18
2018-03-04T02:43:50.081Z,79.13
2018-03-04T02:44:52.618Z,79.14
2018-03-04T02:45:55.135Z,79.24
2018-03-04T02:46:57.658Z,79.20
2018-03-04T02:48:00.199Z,79.32
2018-03-04T02:49:02.745Z,79.04
2018-03-04T02:50:05.280Z,78.96
2018-03-04T02:51:07.832Z,78.87
2018-03-04T02:52:10.397Z,78.86
2018-03-04T02:53:12.910Z,78.80
2018-03-04T02:54:15.450Z,78.95
2018-03-04T02:55:17.973Z,79.05
2018-03-04T02:56:20.487Z,79.03
2018-03-04T02:57:23.005Z,79.44
2018-03-04T02:58:25.548Z,79.37
2018-03-04T02:59:28.108Z,79.25
2018-03-04T03:00:30.653Z,78.96
2018-03-04T03:01:33.188Z,79.44
2018-03-04T03:02:35.737Z,80.09
2018-03-04T03:03:38.280Z,79.64
2018-03-04T03:04:40.819Z,79.12
2018-03-04T03:05:43.365Z,79.21
2018-03-04T03:06:45.898Z,79.32
2018-03-04T03:07:48.427Z,79.16
2018-03-04T03:08:50.964Z,79.45
2018-03-04T03:09:53.497Z,79.74
2018-03-04T03:10:56.028Z,80.16
2018-03-04T03:11:58.541Z,79.89
2018-03-04T03:13:01.076Z,79.97
2018-03-04T03:14:03.600Z,79.65
2018-03-04T03:15:06.149Z,79.80
2018-03-04T03:16:08.673Z,79.68
2018-03-04T03:17:11.193Z,80.00
2018-03-04T03:18:13.735Z,79.68
2018-03-04T03:19:16.247Z,80.00
2018-03-04T03:20:18.826Z,79.68
2018-03-04T03:21:21.369Z,79.54
2018-03-04T03:22:23.904Z,79.46
2018-03-04T03:23:26.452Z,79.75
2018-03-04T03:24:28.973Z,79.99
2018-03-04T03:25:31.517Z,79.99
2018-03-04T03:26:34.037Z,79.86
2018-03-04T03:27:36.567Z,79.58
2018-03-04T03:28:39.082Z,79.29
2018-03-04T03:29:41.642Z,79.59
2018-03-04T03:30:44.237Z,79.73
2018-03-04T03:31:46.760Z,80.01
2018-03-04T03:32:49.278Z,79.72
2018-03-04T03:33:51.816Z,79.69
2018-03-04T03:34:54.337Z,80.22
2018-03-04T03:35:56.894Z,80.22
2018-03-04T03:36:59.433Z,79.88
2018-03-04T03:38:01.950Z,80.14
2018-03-04T03:39:04.505Z,80.23
2018-03-04T03:40:07.017Z,80.46
2018-03-04T03:41:09.581Z,80.78
2018-03-04T03:42:12.113Z,80.99
2018-03-04T03:43:14.652Z,80.90
2018-03-04T03:44:17.161Z,80.78
2018-03-04T03:45:19.682Z,80.80
2018-03-04T03:46:22.246Z,80.94
2018-03-04T03:47:24.762Z,80.86
2018-03-04T03:48:27.301Z,81.20
2018-03-04T03:49:29.823Z,81.37
2018-03-04T03:50:32.355Z,81.07
2018-03-04T03:51:34.898Z,80.93
2018-03-04T03:52:37.427Z,80.76
2018-03-04T03:53:39.945Z,80.79
2018-03-04T03:54:42.473Z,80.96
2018-03-04T03:55:45.021Z,81.01
2018-03-04T03:56:47.584Z,80.83
2018-03-04T03:57:50.102Z,81.20
2018-03-04T03:58:52.625Z,81.24
2018-03-04T03:59:55.163Z,80.94
2018-03-04T04:00:57.684Z,81.06
2018-03-04T04:02:00.233Z,80.95
2018-03-04T04:03:02.769Z,80.79
2018-03-04T04:04:05.332Z,80.94
2018-03-04T04:05:07.880Z,81.14
2018-03-04T04:06:10.426Z,81.15
2018-03-04T04:07:12.986Z,81.88
2018-03-04T04:08:15.512Z,81.56
2018-03-04T04:09:18.055Z,81.37
2018-03-04T04:10:20.614Z,81.39
2018-03-04T04:11:23.129Z,81.40
2018-03-04T04:12:25.723Z,81.42
2018-03-04T04:13:28.238Z,81.26
2018-03-04T04:14:30.759Z,81.55
2018-03-04T04:15:33.301Z,81.53
2018-03-04T04:16:35.831Z,81.67
2018-03-04T04:17:38.366Z,81.28
2018-03-04T04:18:40.972Z,80.97
2018-03-04T04:19:43.494Z,80.88
2018-03-04T04:20:46.039Z,80.83
2018-03-04T04:21:48.602Z,80.92
2018-03-04T04:22:51.160Z,80.90
2018-03-04T04:23:53.696Z,81.22
2018-03-04T04:24:56.242Z,81.70
2018-03-04T04:25:58.793Z,81.77
2018-03-04T04:27:01.329Z,81.91
2018-03-04T04:28:03.896Z,81.61
2018-03-04T04:29:06.427Z,81.42
2018-03-04T04:30:08.968Z,81.21
2018-03-04T04:31:11.486Z,80.98
2018-03-04T04:32:14.052Z,81.30
2018-03-04T04:33:16.605Z,81.08
2018-03-04T04:34:19.130Z,80.96
2018-03-04T04:35:21.656Z,80.82
2018-03-04T04:36:24.201Z,81.09
2018-03-04T04:37:26.732Z,81.00
2018-03-04T04:38:29.296Z,80.94
2018-03-04T04:39:31.832Z,81.32
2018-03-04T04:40:34.350Z,81.33
2018-03-04T04:41:36.900Z,81.27
2018-03-04T04:42:39.452Z,81.34
2018-03-04T04:43:42.016Z,81.13
2018-03-04T04:44:44.538Z,81.31
2018-03-04T04:45:47.068Z,81.23
2018-03-04T04:46:49.587Z,81.38
2018-03-04T04:47:52.120Z,81.39
2018-03-04T04:48:54.669Z,81.50
2018-03-04T04:49:57.204Z,81.95
2018-03-04T04:50:59.737Z,81.59
2018-03-04T04:52:02.305Z,81.48
2018-03-04T04:53:04.836Z,81.64
2018-03-04T04:54:07.369Z,81.25
2018-03-04T04:55:09.898Z,81.09
2018-03-04T04:56:12.414Z,80.97
2018-03-04T04:57:14.930Z,81.18
2018-03-04T04:58:17.464Z,81.01
2018-03-04T04:59:20.013Z,81.03
2018-03-04T05:00:22.530Z,80.94
2018-03-04T05:01:25.064Z,80.55
2018-03-04T05:02:27.600Z,80.83
2018-03-04T05:03:30.139Z,81.13
2018-03-04T05:04:32.673Z,80.97
2018-03-04T05:05:35.203Z,81.22
2018-03-04T05:06:37.745Z,81.00
2018-03-04T05:07:40.287Z,80.99
2018-03-04T05:08:42.819Z,81.42
2018-03-04T05:09:45.415Z,81.63
2018-03-04T05:10:47.934Z,81.56
2018-03-04T05:11:50.476Z,81.70
2018-03-04T05:12:53.007Z,81.47
2018-03-04T05:13:55.524Z,81.26
2018-03-04T05:14:58.078Z,81.26
2018-03-04T05:16:00.593Z,81.20
2018-03-04T05:17:03.117Z,81.27
2018-03-04T05:18:05.643Z,81.29
2018-03-04T05:19:08.158Z,81.15
2018-03-04T05:20:10.745Z,81.49
2018-03-04T05:21:13.270Z,81.57
2018-03-04T05:22:15.796Z,81.36
2018-03-04T05:23:18.369Z,81.35
2018-03-04T05:24:20.889Z,81.37
2018-03-04T05:25:23.440Z,81.41
2018-03-04T05:26:25.974Z,81.45
2018-03-04T05:27:28.503Z,81.60
2018-03-04T05:28:31.039Z,81.70
2018-03-04T05:29:33.604Z,81.58
2018-03-04T05:30:36.171Z,81.42
2018-03-04T05:31:38.709Z,81.38
2018-03-04T05:32:41.226Z,81.62
2018-03-04T05:33:43.764Z,81.35
2018-03-04T05:34:46.298Z,81.19
2018-03-04T05:35:48.873Z,81.05
2018-03-04T05:36:51.420Z,81.65
2018-03-04T05:37:53.934Z,81.63
2018-03-04T05:38:56.486Z,81.49
2018-03-04T05:39:59.014Z,81.58
2018-03-04T05:41:01.572Z,81.48
2018-03-04T05:42:04.108Z,81.81
2018-03-04T05:43:06.639Z,81.86
2018-03-04T05:44:09.192Z,81.95
2018-03-04T05:45:11.796Z,82.02
2018-03-04T05:46:14.357Z,82.00
2018-03-04T05:47:16.887Z,81.74
2018-03-04T05:48:19.428Z,81.60
2018-03-04T05:49:21.964Z,81.71
2018-03-04T05:50:24.496Z,81.67
2018-03-04T05:51:27.053Z,81.42
2018-03-04T05:52:29.570Z,81.78
2018-03-04T05:53:32.086Z,81.68
2018-03-04T05:54:34.619Z,81.93
2018-03-04T05:55:37.148Z,81.98
2018-03-04T05:56:39.685Z,81.55
2018-03-04T05:57:42.221Z,81.80
2018-03-04T05:58:44.769Z,82.20
2018-03-04T05:59:47.294Z,82.33
2018-03-04T06:00:49.831Z,82.13
2018-03-04T06:01:52.370Z,82.12
2018-03-04T06:02:54.912Z,82.15
2018-03-04T06:03:57.430Z,81.91
2018-03-04T06:04:59.967Z,81.74
2018-03-04T06:06:02.491Z,82.29
2018-03-04T06:07:05.026Z,82.41
2018-03-04T06:08:07.550Z,82.30
2018-03-04T06:09:10.084Z,82.13
2018-03-04T06:10:12.624Z,82.30
2018-03-04T06:11:15.147Z,82.15
2018-03-04T06:12:17.723Z,82.38
2018-03-04T06:13:20.229Z,82.68
2018-03-04T06:14:22.746Z,82.56
2018-03-04T06:15:25.270Z,83.02
2018-03-04T06:16:27.828Z,83.03
2018-03-04T06:17:30.378Z,83.05
2018-03-04T06:18:32.899Z,83.16
2018-03-04T06:19:35.418Z,83.12
2018-03-04T06:20:37.961Z,83.42
2018-03-04T06:21:40.516Z,83.39
2018-03-04T06:22:43.053Z,83.48
2018-03-04T06:23:45.566Z,83.67
2018-03-04T06:24:48.252Z,83.73
2018-03-04T06:25:50.793Z,83.81
2018-03-04T06:26:56.987Z,83.71
2018-03-04T06:28:20.408Z,83.87
2018-03-04T06:29:22.949Z,83.93
2018-03-04T06:30:25.469Z,83.69
2018-03-04T06:31:27.986Z,84.08
2018-03-04T06:32:30.516Z,84.24
2018-03-04T06:33:33.165Z,84.28
2018-03-04T06:34:35.685Z,84.45
2018-03-04T06:35:38.206Z,84.73
2018-03-04T06:36:40.776Z,85.01
2018-03-04T06:37:43.315Z,84.89
2018-03-04T06:38:45.866Z,85.05
2018-03-04T06:39:48.407Z,84.95
2018-03-04T06:40:51.011Z,84.78
2018-03-04T06:41:54.756Z,84.26
2018-03-04T06:42:57.291Z,84.52
2018-03-04T06:43:59.807Z,84.67
2018-03-04T06:45:02.326Z,84.14
2018-03-04T06:46:04.856Z,82.54
2018-03-04T06:47:07.391Z,82.33
2018-03-04T06:48:09.909Z,79.78
2018-03-04T06:49:12.446Z,80.37
2018-03-04T06:50:14.977Z,81.04
2018-03-04T06:51:17.502Z,81.30
2018-03-04T06:52:20.064Z,81.88
2018-03-04T06:53:22.601Z,80.92
2018-03-04T06:54:25.137Z,81.48
2018-03-04T06:55:27.693Z,81.49
2018-03-04T06:56:30.210Z,81.65
2018-03-04T06:57:32.744Z,81.41
2018-03-04T06:58:35.529Z,82.13
2018-03-04T06:59:38.073Z,80.97
2018-03-04T07:00:40.612Z,80.75
2018-03-04T07:01:43.146Z,80.30
2018-03-04T07:02:45.689Z,80.35
2018-03-04T07:03:48.209Z,81.17
2018-03-04T07:04:50.743Z,81.18
2018-03-04T07:05:53.262Z,81.21
2018-03-04T07:06:55.785Z,80.84
2018-03-04T07:07:58.305Z,80.96
2018-03-04T07:09:00.822Z,80.53
2018-03-04T07:10:03.338Z,80.54
2018-03-04T07:11:05.856Z,80.29
2018-03-04T07:12:08.374Z,80.35
2018-03-04T07:13:11.102Z,80.47
2018-03-04T07:14:13.618Z,80.45
2018-03-04T07:15:16.150Z,80.19
2018-03-04T07:16:18.883Z,80.06
2018-03-04T07:18:37.681Z,80.15
2018-03-04T07:19:40.476Z,80.53
2018-03-04T07:20:43.064Z,80.51
2018-03-04T07:21:45.814Z,80.97
2018-03-04T07:22:48.401Z,80.34
2018-03-04T07:23:50.934Z,80.58
2018-03-04T07:24:53.543Z,80.56
2018-03-04T07:25:56.146Z,79.38
2018-03-04T07:26:58.789Z,77.92
2018-03-04T07:28:01.320Z,76.94
2018-03-04T07:29:03.847Z,76.31
2018-03-04T07:30:06.396Z,76.63
2018-03-04T07:31:08.939Z,76.73
2018-03-04T07:32:11.472Z,77.37
2018-03-04T07:33:13.995Z,77.43
2018-03-04T07:34:16.533Z,76.97
2018-03-04T07:35:19.068Z,77.80
2018-03-04T07:36:21.603Z,75.69
2018-03-04T07:37:24.118Z,75.11
2018-03-04T07:38:26.646Z,73.58
2018-03-04T07:39:29.172Z,72.78
2018-03-04T07:40:31.686Z,73.11
2018-03-04T07:41:34.210Z,74.46
2018-03-04T07:42:36.740Z,74.12
2018-03-04T07:43:39.285Z,73.04
2018-03-04T07:44:41.798Z,71.00
2018-03-04T07:45:44.349Z,69.86
2018-03-04T07:46:46.915Z,69.25
2018-03-04T07:47:49.446Z,69.69
2018-03-04T07:48:51.970Z,70.48
2018-03-04T07:49:54.491Z,70.66
2018-03-04T07:50:57.002Z,70.48
2018-03-04T07:51:59.528Z,69.94
2018-03-04T07:53:02.074Z,69.97
2018-03-04T07:54:04.604Z,71.10
2018-03-04T07:55:07.121Z,71.63
2018-03-04T07:56:09.652Z,73.02
2018-03-04T07:57:12.162Z,74.00
2018-03-04T07:58:14.685Z,73.48
2018-03-04T07:59:17.263Z,73.47
2018-03-04T08:00:19.796Z,74.35
2018-03-04T08:01:22.321Z,74.33
2018-03-04T08:02:24.857Z,74.72
2018-03-04T08:03:27.391Z,74.44
2018-03-04T08:04:29.920Z,73.33
2018-03-04T08:05:32.481Z,73.77
2018-03-04T08:06:34.998Z,72.95
2018-03-04T08:07:37.653Z,71.02
2018-03-04T08:08:40.183Z,68.55
2018-03-04T08:09:42.714Z,68.47
2018-03-04T08:10:45.280Z,68.33
2018-03-04T08:11:47.814Z,68.06
2018-03-04T08:12:50.325Z,68.80
2018-03-04T08:13:52.841Z,69.75
2018-03-04T08:14:55.361Z,69.49
2018-03-04T08:15:57.877Z,69.65
2018-03-04T08:17:00.581Z,70.58
2018-03-04T08:18:03.221Z,71.79
2018-03-04T08:19:05.752Z,74.19
2018-03-04T08:20:08.266Z,74.64
2018-03-04T08:21:10.781Z,73.48
2018-03-04T08:22:13.294Z,73.15
2018-03-04T08:23:15.820Z,73.45
2018-03-04T08:24:30.160Z,72.85
2018-03-04T08:25:36.333Z,72.87
2018-03-04T08:26:50.886Z,74.15
2018-03-04T08:28:05.422Z,72.75
2018-03-04T08:29:07.980Z,72.22
2018-03-04T08:30:10.508Z,74.48
2018-03-04T08:31:13.036Z,73.26
2018-03-04T08:32:15.551Z,73.53
2018-03-04T08:33:18.108Z,73.31
2018-03-04T08:34:20.636Z,72.54
2018-03-04T08:35:23.168Z,71.22
2018-03-04T08:36:25.682Z,69.33
2018-03-04T08:37:28.202Z,66.64
2018-03-04T08:38:30.714Z,65.05
2018-03-04T08:39:33.322Z,64.63
2018-03-04T08:40:35.832Z,64.75
2018-03-04T08:41:38.372Z,66.57
2018-03-04T08:42:40.942Z,66.83
2018-03-04T08:43:43.469Z,67.81
2018-03-04T08:44:46.000Z,66.36
2018-03-04T08:45:48.509Z,68.85
2018-03-04T08:46:51.061Z,68.98
2018-03-04T08:47:53.616Z,68.54
2018-03-04T08:48:56.133Z,68.73
2018-03-04T08:49:58.688Z,68.50
2018-03-04T08:52:32.201Z,69.54
2018-03-04T08:53:34.751Z,69.26
2018-03-04T08:54:37.291Z,69.05
2018-03-04T08:55:39.798Z,69.85
2018-03-04T08:56:42.334Z,69.40
2018-03-04T08:57:44.842Z,69.06
2018-03-04T08:58:47.385Z,70.41
2018-03-04T08:59:49.902Z,71.51
2018-03-04T09:00:52.414Z,71.30
2018-03-04T09:01:54.940Z,72.13
2018-03-04T09:02:57.520Z,71.37
2018-03-04T09:04:00.083Z,72.46
2018-03-04T09:05:02.623Z,72.66
2018-03-04T09:06:05.157Z,72.73
2018-03-04T09:07:07.666Z,72.69
2018-03-04T09:08:10.218Z,72.67
2018-03-04T09:09:12.746Z,72.24
2018-03-04T09:10:15.283Z,71.92
2018-03-04T09:11:17.817Z,72.24
2018-03-04T09:12:20.350Z,72.27
2018-03-04T09:13:22.865Z,72.49
2018-03-04T09:14:25.398Z,71.43
2018-03-04T09:15:27.925Z,71.90
2018-03-04T09:16:30.478Z,72.32
2018-03-04T09:17:33.003Z,72.50
2018-03-04T09:18:35.558Z,72.69
2018-03-04T09:19:38.449Z,73.08
2018-03-04T09:20:40.976Z,74.07
2018-03-04T09:21:43.500Z,73.28
2018-03-04T09:22:46.086Z,72.30
2018-03-04T09:23:48.750Z,71.50
2018-03-04T09:24:51.296Z,70.88
2018-03-04T09:25:53.823Z,70.54
2018-03-04T09:26:56.349Z,71.20
2018-03-04T09:27:58.904Z,69.80
2018-03-04T09:29:01.433Z,69.23
2018-03-04T09:30:03.978Z,67.03
2018-03-04T09:31:06.556Z,64.55
2018-03-04T09:32:09.078Z,61.90
2018-03-04T09:33:11.621Z,59.67
2018-03-04T09:34:14.153Z,57.53
2018-03-04T09:35:16.663Z,57.87
2018-03-04T09:36:19.200Z,59.09
2018-03-04T09:37:21.721Z,60.54
2018-03-04T09:38:24.263Z,58.99
2018-03-04T09:39:26.910Z,59.10
2018-03-04T09:40:29.422Z,61.52
2018-03-04T09:41:31.974Z,60.12
2018-03-04T09:42:34.490Z,61.92
2018-03-04T09:43:37.006Z,61.42
2018-03-04T09:44:39.518Z,60.62
2018-03-04T09:45:47.533Z,59.47
2018-03-04T09:46:57.710Z,58.11
2018-03-04T09:48:00.631Z,56.84
2018-03-04T09:49:03.154Z,58.56
2018-03-04T09:50:05.680Z,58.23
2018-03-04T09:51:08.210Z,59.15
2018-03-04T09:52:10.735Z,60.45
2018-03-04T09:53:13.260Z,60.80
2018-03-04T09:54:15.804Z,62.06
2018-03-04T09:55:18.318Z,62.38
2018-03-04T09:56:20.838Z,63.00
2018-03-04T09:57:23.351Z,64.42
2018-03-04T09:58:25.877Z,66.13
2018-03-04T09:59:28.390Z,66.33
2018-03-04T10:00:30.902Z,65.25
2018-03-04T10:01:33.450Z,65.77
2018-03-04T10:02:35.961Z,66.58
2018-03-04T10:03:38.486Z,65.97
2018-03-04T10:04:40.999Z,67.30
2018-03-04T10:05:43.564Z,66.29
2018-03-04T10:06:46.088Z,66.27
2018-03-04T10:07:48.607Z,64.45
2018-03-04T10:08:51.121Z,64.31
2018-03-04T10:09:53.680Z,64.02
2018-03-04T10:10:56.195Z,64.04
2018-03-04T10:11:58.710Z,64.28
2018-03-04T10:13:01.229Z,64.30
2018-03-04T10:14:03.756Z,64.17
2018-03-04T10:15:06.308Z,65.09
2018-03-04T10:16:08.840Z,63.43
2018-03-04T10:17:11.364Z,61.82
2018-03-04T10:18:13.878Z,61.88
2018-03-04T10:19:16.430Z,61.68
2018-03-04T10:20:18.987Z,63.00
2018-03-04T10:21:21.516Z,62.00
2018-03-04T10:22:24.045Z,59.08
2018-03-04T10:23:26.580Z,56.16
2018-03-04T10:24:29.115Z,52.95
2018-03-04T10:25:31.675Z,52.91
2018-03-04T10:26:34.222Z,50.71
2018-03-04T10:27:36.752Z,48.21
2018-03-04T10:28:39.273Z,46.34
2018-03-04T10:29:41.791Z,45.69
2018-03-04T10:30:44.309Z,49.09
2018-03-04T10:31:46.837Z,49.00
2018-03-04T10:32:49.425Z,45.64
2018-03-04T10:33:51.955Z,43.99
2018-03-04T10:34:54.475Z,41.67
2018-03-04T10:35:57.012Z,41.47
2018-03-04T10:36:59.539Z,41.01
2018-03-04T10:38:02.073Z,39.81
2018-03-04T10:39:04.631Z,41.61
2018-03-04T10:40:07.146Z,41.61
2018-03-04T10:41:09.680Z,39.85
2018-03-04T10:42:12.208Z,39.34
2018-03-04T10:43:14.740Z,38.88
2018-03-04T10:44:17.258Z,42.77
2018-03-04T10:45:19.801Z,43.38
2018-03-04T10:46:22.390Z,41.66
2018-03-04T10:47:24.903Z,41.96
2018-03-04T10:48:27.440Z,41.97
2018-03-04T10:49:29.962Z,40.97
2018-03-04T10:50:32.496Z,41.55
2018-03-04T10:51:35.010Z,44.02
2018-03-04T10:52:37.540Z,45.12
2018-03-04T10:53:40.066Z,45.42
2018-03-04T10:54:42.586Z,45.61
2018-03-04T10:55:45.104Z,48.00
2018-03-04T10:56:47.639Z,48.78
2018-03-04T10:57:50.151Z,49.60
2018-03-04T10:58:52.688Z,50.04
2018-03-04T10:59:55.220Z,51.27
2018-03-04T11:00:57.751Z,52.40
2018-03-04T11:02:05.288Z,53.76
2018-03-04T11:03:07.813Z,55.03
2018-03-04T11:04:10.376Z,55.70
2018-03-04T11:05:12.885Z,58.58
2018-03-04T11:06:15.411Z,60.16
2018-03-04T11:07:18.004Z,60.51
2018-03-04T11:08:20.624Z,61.00
2018-03-04T11:09:23.156Z,60.72
2018-03-04T11:10:25.684Z,61.91
2018-03-04T11:11:28.420Z,61.67
2018-03-04T11:12:30.968Z,61.28
2018-03-04T11:13:33.487Z,60.77
2018-03-04T11:14:36.088Z,58.99
2018-03-04T11:15:38.614Z,58.42
2018-03-04T11:16:41.136Z,58.54
2018-03-04T11:17:43.736Z,57.17
2018-03-04T11:18:46.632Z,55.70
2018-03-04T11:19:49.185Z,54.72
2018-03-04T11:20:51.698Z,50.15
2018-03-04T11:21:54.227Z,46.20
2018-03-04T11:22:56.875Z,42.55
2018-03-04T11:23:59.423Z,39.13
2018-03-04T11:25:01.996Z,37.49
2018-03-04T11:26:04.522Z,38.59
2018-03-04T11:27:07.055Z,37.54
2018-03-04T11:28:09.597Z,36.70
2018-03-04T11:29:12.111Z,36.37
2018-03-04T11:30:14.637Z,36.09
2018-03-04T11:31:17.200Z,35.53
2018-03-04T11:32:19.813Z,36.76
2018-03-04T11:33:22.359Z,40.77
2018-03-04T11:34:24.884Z,43.52
2018-03-04T11:35:27.425Z,45.35
2018-03-04T11:36:29.942Z,44.73
2018-03-04T11:37:32.462Z,43.38
2018-03-04T11:38:35.018Z,41.61
2018-03-04T11:39:37.535Z,37.67
2018-03-04T11:40:40.064Z,35.11
2018-03-04T11:41:42.578Z,33.79
2018-03-04T11:42:45.105Z,31.99
2018-03-04T11:43:47.666Z,34.13
2018-03-04T11:44:50.200Z,37.19
2018-03-04T11:45:52.718Z,37.88
2018-03-04T11:46:55.246Z,39.70
2018-03-04T11:47:57.759Z,43.34
2018-03-04T11:49:00.294Z,45.26
2018-03-04T11:50:02.826Z,45.78
2018-03-04T11:51:05.386Z,44.45
2018-03-04T11:52:07.906Z,43.65
2018-03-04T11:53:10.436Z,43.10
2018-03-04T11:54:13.037Z,43.42
2018-03-04T11:55:15.541Z,39.14
2018-03-04T11:56:18.058Z,36.49
2018-03-04T11:57:20.633Z,33.21
2018-03-04T11:58:23.176Z,33.08
2018-03-04T11:59:25.795Z,32.83
2018-03-04T12:00:28.308Z,32.21
2018-03-04T12:01:30.833Z,32.80
2018-03-04T12:02:33.395Z,34.30
2018-03-04T12:03:35.948Z,34.23
2018-03-04T12:04:38.532Z,34.43
2018-03-04T12:05:41.064Z,34.61
2018-03-04T12:06:43.623Z,33.68
2018-03-04T12:07:46.231Z,33.28
2018-03-04T12:08:48.768Z,32.37
2018-03-04T12:09:51.312Z,32.67
2018-03-04T12:10:53.851Z,31.04
2018-03-04T12:11:56.395Z,31.51
2018-03-04T12:12:58.937Z,31.75
2018-03-04T12:14:01.449Z,31.70
2018-03-04T12:15:04.017Z,31.47
2018-03-04T12:16:06.531Z,30.16
2018-03-04T12:17:09.084Z,30.72
2018-03-04T12:18:11.684Z,30.68
2018-03-04T12:19:14.207Z,30.66
2018-03-04T12:20:16.753Z,30.09
2018-03-04T12:21:19.345Z,28.23
2018-03-04T12:22:21.881Z,28.77
2018-03-04T12:23:24.394Z,27.79
2018-03-04T12:24:26.930Z,28.14
2018-03-04T12:25:29.474Z,27.85
2018-03-04T12:26:31.999Z,27.31
2018-03-04T12:27:34.589Z,28.35
2018-03-04T12:28:37.386Z,28.56
2018-03-04T12:29:39.916Z,29.35
2018-03-04T12:30:42.458Z,28.67
2018-03-04T12:31:44.983Z,27.04
2018-03-04T12:32:47.554Z,25.79
2018-03-04T12:33:50.090Z,27.19
2018-03-04T12:34:52.607Z,25.67
2018-03-04T12:35:55.166Z,25.43
2018-03-04T12:36:57.734Z,27.70
2018-03-04T12:38:00.249Z,26.45
2018-03-04T12:39:02.803Z,25.49
2018-03-04T12:40:05.340Z,26.48
2018-03-04T12:41:07.882Z,27.03
2018-03-04T12:42:10.434Z,27.45
2018-03-04T12:43:12.945Z,28.51
2018-03-04T12:44:15.479Z,27.32
2018-03-04T12:45:18.048Z,26.16
2018-03-04T12:46:20.597Z,25.11
2018-03-04T12:47:23.320Z,25.23
2018-03-04T12:48:25.844Z,25.08
2018-03-04T12:49:28.366Z,24.48
2018-03-04T12:50:30.878Z,23.84
2018-03-04T12:51:33.424Z,23.95
2018-03-04T12:52:35.955Z,24.21
2018-03-04T12:53:38.488Z,22.34
2018-03-04T12:54:41.058Z,22.27
2018-03-04T12:55:43.605Z,23.50
2018-03-04T12:56:46.260Z,27.19
2018-03-04T12:57:48.789Z,26.66
2018-03-04T12:58:51.330Z,26.44
2018-03-04T12:59:53.847Z,24.81
2018-03-04T13:00:56.380Z,26.79
2018-03-04T13:01:58.930Z,26.94
2018-03-04T13:03:01.450Z,27.30
2018-03-04T13:04:03.996Z,29.24
2018-03-04T13:05:06.535Z,27.83
2018-03-04T13:06:09.070Z,24.80
2018-03-04T13:07:12.488Z,24.41
2018-03-04T13:08:15.077Z,23.68
2018-03-04T13:09:17.626Z,22.24
2018-03-04T13:10:20.179Z,25.76
2018-03-04T13:11:22.708Z,27.39
2018-03-04T13:12:25.256Z,26.75
2018-03-04T13:13:27.785Z,28.91
2018-03-04T13:14:30.395Z,31.38
2018-03-04T13:15:32.924Z,32.94
2018-03-04T13:16:35.468Z,33.28
2018-03-04T13:17:38.024Z,32.24
2018-03-04T13:18:40.555Z,30.96
2018-03-04T13:19:43.086Z,31.12
2018-03-04T13:20:45.636Z,29.61
2018-03-04T13:21:48.150Z,27.22
2018-03-04T13:22:50.704Z,27.84
2018-03-04T13:23:53.214Z,29.05
2018-03-04T13:24:55.731Z,30.06
2018-03-04T13:25:58.246Z,29.05
2018-03-04T13:27:00.909Z,29.14
2018-03-04T13:28:03.472Z,28.09
2018-03-04T13:29:06.047Z,28.26